CheckWX is a tool to help pilots better visualize weather data.  It is not intended as a substitute for an official pre-flight weather briefing.

07:30:03 UTC

LTFG TAF
Gazipasa Airport
Alanya, Turkey
TAF LTFG 170440Z 1706/1715 11005KT CAVOK BECMG 1706/1710 24010KT SCT030

Jun-17@
06:00 UTC

Jun-17 @ 06:00 UTC

Jun-17@
15:00 UTC

Jun-17 @ 15:00 UTC

TAF LTFG 170440Z 1706/1715 11005KT CAVOK
Wind
  • 110° at 5 KTS
Conditions
No significant weather
Cloud Levels
  • No significant clouds

Jun-17@
06:00 UTC

Jun-17 @ 06:00 UTC

Jun-17@
15:00 UTC

Jun-17 @ 15:00 UTC

BECMG 1706/1710 24010KT SCT030

Becoming

Becoming Conditions expected by Mon, Jun 17, 2019 @ 10:00 UTC

Wind
  • 240° at 10 KTS
Conditions
No significant weather
Cloud Levels
  • Scattered at 3,000' AGL